sensor_id;sensor_type;location;lat;lon;timestamp;temperature;humidity
6738;DHT22;3406;49.902;8.596;2022-09-25T00:01:06;14.20;90.40
6738;DHT22;3406;49.902;8.596;2022-09-25T00:03:33;14.20;90.40
6738;DHT22;3406;49.902;8.596;2022-09-25T00:06:02;14.20;90.40
6738;DHT22;3406;49.902;8.596;2022-09-25T00:08:29;14.20;90.40
6738;DHT22;3406;49.902;8.596;2022-09-25T00:10:57;14.20;90.40
6738;DHT22;3406;49.902;8.596;2022-09-25T00:13:24;14.20;90.50
6738;DHT22;3406;49.902;8.596;2022-09-25T00:15:52;14.20;90.50
6738;DHT22;3406;49.902;8.596;2022-09-25T00:18:20;14.20;90.50
6738;DHT22;3406;49.902;8.596;2022-09-25T00:21:10;14.20;90.60
6738;DHT22;3406;49.902;8.596;2022-09-25T00:23:37;14.20;90.60
6738;DHT22;3406;49.902;8.596;2022-09-25T00:26:06;14.20;90.60
6738;DHT22;3406;49.902;8.596;2022-09-25T00:28:33;14.20;90.70
6738;DHT22;3406;49.902;8.596;2022-09-25T00:31:01;14.20;90.70
6738;DHT22;3406;49.902;8.596;2022-09-25T00:33:29;14.20;90.70
6738;DHT22;3406;49.902;8.596;2022-09-25T00:35:59;14.20;90.70
6738;DHT22;3406;49.902;8.596;2022-09-25T00:38:28;14.20;90.70
6738;DHT22;3406;49.902;8.596;2022-09-25T00:40:56;14.20;90.70
6738;DHT22;3406;49.902;8.596;2022-09-25T00:43:36;14.20;90.80
6738;DHT22;3406;49.902;8.596;2022-09-25T00:46:06;14.20;90.80
6738;DHT22;3406;49.902;8.596;2022-09-25T00:48:35;14.20;90.80
6738;DHT22;3406;49.902;8.596;2022-09-25T00:51:02;14.20;90.80
6738;DHT22;3406;49.902;8.596;2022-09-25T00:53:31;14.20;90.80
6738;DHT22;3406;49.902;8.596;2022-09-25T00:55:59;14.20;90.80
6738;DHT22;3406;49.902;8.596;2022-09-25T00:58:30;14.20;90.90
6738;DHT22;3406;49.902;8.596;2022-09-25T01:01:00;14.20;90.90
6738;DHT22;3406;49.902;8.596;2022-09-25T01:03:26;14.20;90.90
6738;DHT22;3406;49.902;8.596;2022-09-25T01:05:53;14.20;90.90
6738;DHT22;3406;49.902;8.596;2022-09-25T01:08:23;14.20;91.00
6738;DHT22;3406;49.902;8.596;2022-09-25T01:10:51;14.20;91.00
6738;DHT22;3406;49.902;8.596;2022-09-25T01:13:18;14.20;91.00
6738;DHT22;3406;49.902;8.596;2022-09-25T01:15:52;14.20;91.00
6738;DHT22;3406;49.902;8.596;2022-09-25T01:18:32;14.20;91.00
6738;DHT22;3406;49.902;8.596;2022-09-25T01:21:12;14.20;91.10
6738;DHT22;3406;49.902;8.596;2022-09-25T01:24:03;14.20;91.10
6738;DHT22;3406;49.902;8.596;2022-09-25T01:26:53;14.20;91.10
6738;DHT22;3406;49.902;8.596;2022-09-25T01:29:26;14.20;91.20
6738;DHT22;3406;49.902;8.596;2022-09-25T01:32:00;14.20;91.20
6738;DHT22;3406;49.902;8.596;2022-09-25T01:34:31;14.20;91.20
6738;DHT22;3406;49.902;8.596;2022-09-25T01:37:03;14.20;91.20
6738;DHT22;3406;49.902;8.596;2022-09-25T01:39:35;14.20;91.20
6738;DHT22;3406;49.902;8.596;2022-09-25T01:42:07;14.20;91.20
6738;DHT22;3406;49.902;8.596;2022-09-25T01:44:38;14.10;91.20
6738;DHT22;3406;49.902;8.596;2022-09-25T01:47:09;14.20;91.30
6738;DHT22;3406;49.902;8.596;2022-09-25T01:49:40;14.20;91.30
6738;DHT22;3406;49.902;8.596;2022-09-25T01:52:14;14.20;91.30
6738;DHT22;3406;49.902;8.596;2022-09-25T01:54:46;14.20;91.30
6738;DHT22;3406;49.902;8.596;2022-09-25T01:57:17;14.20;91.30
6738;DHT22;3406;49.902;8.596;2022-09-25T01:59:48;14.20;91.40
6738;DHT22;3406;49.902;8.596;2022-09-25T02:02:20;14.10;91.40
6738;DHT22;3406;49.902;8.596;2022-09-25T02:04:52;14.20;91.40
6738;DHT22;3406;49.902;8.596;2022-09-25T02:07:25;14.20;91.40
6738;DHT22;3406;49.902;8.596;2022-09-25T02:09:55;14.10;91.40
6738;DHT22;3406;49.902;8.596;2022-09-25T02:12:27;14.10;91.40
6738;DHT22;3406;49.902;8.596;2022-09-25T02:15:03;14.10;91.50
6738;DHT22;3406;49.902;8.596;2022-09-25T02:17:34;14.10;91.50
6738;DHT22;3406;49.902;8.596;2022-09-25T02:20:21;14.10;91.60
6738;DHT22;3406;49.902;8.596;2022-09-25T02:23:06;14.00;91.60
6738;DHT22;3406;49.902;8.596;2022-09-25T02:25:36;14.00;91.70
6738;DHT22;3406;49.902;8.596;2022-09-25T02:28:03;14.00;91.70
6738;DHT22;3406;49.902;8.596;2022-09-25T02:30:31;14.00;91.70
6738;DHT22;3406;49.902;8.596;2022-09-25T02:32:58;14.00;91.80
6738;DHT22;3406;49.902;8.596;2022-09-25T02:35:25;14.00;91.80
6738;DHT22;3406;49.902;8.596;2022-09-25T02:37:53;14.00;91.80
6738;DHT22;3406;49.902;8.596;2022-09-25T02:40:25;14.00;91.80
6738;DHT22;3406;49.902;8.596;2022-09-25T02:43:01;14.00;91.80
6738;DHT22;3406;49.902;8.596;2022-09-25T02:45:38;14.10;91.90
6738;DHT22;3406;49.902;8.596;2022-09-25T02:48:14;14.10;91.90
6738;DHT22;3406;49.902;8.596;2022-09-25T02:50:50;14.10;91.90
6738;DHT22;3406;49.902;8.596;2022-09-25T02:53:27;14.10;91.90
6738;DHT22;3406;49.902;8.596;2022-09-25T02:55:57;14.10;91.90
6738;DHT22;3406;49.902;8.596;2022-09-25T02:58:26;14.10;92.00
6738;DHT22;3406;49.902;8.596;2022-09-25T03:00:58;14.10;92.00
6738;DHT22;3406;49.902;8.596;2022-09-25T03:03:26;14.10;92.00
6738;DHT22;3406;49.902;8.596;2022-09-25T03:05:55;14.10;92.00
6738;DHT22;3406;49.902;8.596;2022-09-25T03:08:23;14.10;92.00
6738;DHT22;3406;49.902;8.596;2022-09-25T03:11:07;14.10;92.00
6738;DHT22;3406;49.902;8.596;2022-09-25T03:13:35;14.10;92.00
6738;DHT22;3406;49.902;8.596;2022-09-25T03:16:06;14.10;92.10
6738;DHT22;3406;49.902;8.596;2022-09-25T03:18:33;14.10;92.10
6738;DHT22;3406;49.902;8.596;2022-09-25T03:21:00;14.10;92.10
6738;DHT22;3406;49.902;8.596;2022-09-25T03:23:29;14.10;92.10
6738;DHT22;3406;49.902;8.596;2022-09-25T03:25:56;14.10;92.10
6738;DHT22;3406;49.902;8.596;2022-09-25T03:28:22;14.10;92.10
6738;DHT22;3406;49.902;8.596;2022-09-25T03:30:57;14.10;92.20
6738;DHT22;3406;49.902;8.596;2022-09-25T03:33:26;14.10;92.20
6738;DHT22;3406;49.902;8.596;2022-09-25T03:36:03;14.10;92.20
6738;DHT22;3406;49.902;8.596;2022-09-25T03:38:30;14.20;92.30
6738;DHT22;3406;49.902;8.596;2022-09-25T03:40:57;14.10;92.20
6738;DHT22;3406;49.902;8.596;2022-09-25T03:43:24;14.20;92.30
6738;DHT22;3406;49.902;8.596;2022-09-25T03:45:51;14.10;92.30
6738;DHT22;3406;49.902;8.596;2022-09-25T03:48:17;14.20;92.30
6738;DHT22;3406;49.902;8.596;2022-09-25T03:50:45;14.20;92.30
6738;DHT22;3406;49.902;8.596;2022-09-25T03:53:14;14.20;92.30
6738;DHT22;3406;49.902;8.596;2022-09-25T03:55:42;14.20;92.30
6738;DHT22;3406;49.902;8.596;2022-09-25T03:58:09;14.20;92.40
6738;DHT22;3406;49.902;8.596;2022-09-25T04:00:36;14.20;92.40
6738;DHT22;3406;49.902;8.596;2022-09-25T04:03:03;14.10;92.40
6738;DHT22;3406;49.902;8.596;2022-09-25T04:05:30;14.10;92.40
6738;DHT22;3406;49.902;8.596;2022-09-25T04:07:58;14.10;92.50
6738;DHT22;3406;49.902;8.596;2022-09-25T04:10:26;14.00;92.50
6738;DHT22;3406;49.902;8.596;2022-09-25T04:12:52;14.00;92.60
6738;DHT22;3406;49.902;8.596;2022-09-25T04:15:20;14.00;92.60
6738;DHT22;3406;49.902;8.596;2022-09-25T04:17:47;14.00;92.70
6738;DHT22;3406;49.902;8.596;2022-09-25T04:20:14;14.00;92.70
6738;DHT22;3406;49.902;8.596;2022-09-25T04:22:41;14.00;92.70
6738;DHT22;3406;49.902;8.596;2022-09-25T04:25:09;14.10;92.70
6738;DHT22;3406;49.902;8.596;2022-09-25T04:27:35;14.00;92.70
6738;DHT22;3406;49.902;8.596;2022-09-25T04:30:02;14.10;92.80
6738;DHT22;3406;49.902;8.596;2022-09-25T04:32:29;14.10;92.80
6738;DHT22;3406;49.902;8.596;2022-09-25T04:35:14;14.10;92.80
6738;DHT22;3406;49.902;8.596;2022-09-25T04:37:40;14.10;92.80
6738;DHT22;3406;49.902;8.596;2022-09-25T04:40:09;14.10;92.80
6738;DHT22;3406;49.902;8.596;2022-09-25T04:42:36;14.10;92.90
6738;DHT22;3406;49.902;8.596;2022-09-25T04:45:03;14.10;92.90
6738;DHT22;3406;49.902;8.596;2022-09-25T04:47:30;14.10;92.90
6738;DHT22;3406;49.902;8.596;2022-09-25T04:49:56;14.10;92.90
6738;DHT22;3406;49.902;8.596;2022-09-25T04:52:23;14.10;92.90
6738;DHT22;3406;49.902;8.596;2022-09-25T04:54:50;14.10;93.00
6738;DHT22;3406;49.902;8.596;2022-09-25T04:57:19;14.00;93.00
6738;DHT22;3406;49.902;8.596;2022-09-25T04:59:47;14.00;93.10
6738;DHT22;3406;49.902;8.596;2022-09-25T05:02:15;14.00;93.10
6738;DHT22;3406;49.902;8.596;2022-09-25T05:04:42;13.90;93.20
6738;DHT22;3406;49.902;8.596;2022-09-25T05:07:08;13.90;93.20
6738;DHT22;3406;49.902;8.596;2022-09-25T05:09:35;13.90;93.30
6738;DHT22;3406;49.902;8.596;2022-09-25T05:12:02;13.90;93.40
6738;DHT22;3406;49.902;8.596;2022-09-25T05:14:31;13.90;93.50
6738;DHT22;3406;49.902;8.596;2022-09-25T05:16:57;13.90;93.50
6738;DHT22;3406;49.902;8.596;2022-09-25T05:19:25;13.90;93.60
6738;DHT22;3406;49.902;8.596;2022-09-25T05:21:52;13.90;93.50
6738;DHT22;3406;49.902;8.596;2022-09-25T05:24:20;14.00;93.60
6738;DHT22;3406;49.902;8.596;2022-09-25T05:26:46;14.00;93.60
6738;DHT22;3406;49.902;8.596;2022-09-25T05:29:13;14.00;93.60
6738;DHT22;3406;49.902;8.596;2022-09-25T05:31:41;14.00;93.60
6738;DHT22;3406;49.902;8.596;2022-09-25T05:34:11;14.00;93.60
6738;DHT22;3406;49.902;8.596;2022-09-25T05:36:37;13.90;93.60
6738;DHT22;3406;49.902;8.596;2022-09-25T05:39:04;14.00;93.70
6738;DHT22;3406;49.902;8.596;2022-09-25T05:41:31;14.00;93.70
6738;DHT22;3406;49.902;8.596;2022-09-25T05:44:00;14.00;93.70
6738;DHT22;3406;49.902;8.596;2022-09-25T05:46:31;14.00;93.70
6738;DHT22;3406;49.902;8.596;2022-09-25T05:48:59;14.00;93.80
6738;DHT22;3406;49.902;8.596;2022-09-25T05:51:25;13.90;93.70
6738;DHT22;3406;49.902;8.596;2022-09-25T05:53:52;14.00;93.80
6738;DHT22;3406;49.902;8.596;2022-09-25T05:56:19;14.00;93.80
6738;DHT22;3406;49.902;8.596;2022-09-25T05:58:49;14.00;93.80
6738;DHT22;3406;49.902;8.596;2022-09-25T06:01:16;14.00;93.90
6738;DHT22;3406;49.902;8.596;2022-09-25T06:03:43;14.00;93.90
6738;DHT22;3406;49.902;8.596;2022-09-25T06:06:11;14.10;93.90
6738;DHT22;3406;49.902;8.596;2022-09-25T06:08:38;14.10;93.90
6738;DHT22;3406;49.902;8.596;2022-09-25T06:11:05;14.10;93.90
6738;DHT22;3406;49.902;8.596;2022-09-25T06:13:32;14.10;93.90
6738;DHT22;3406;49.902;8.596;2022-09-25T06:16:01;14.10;93.90
6738;DHT22;3406;49.902;8.596;2022-09-25T06:18:28;14.10;93.90
6738;DHT22;3406;49.902;8.596;2022-09-25T06:20:59;14.10;93.90
6738;DHT22;3406;49.902;8.596;2022-09-25T06:23:28;14.10;94.00
6738;DHT22;3406;49.902;8.596;2022-09-25T06:25:59;14.10;94.00
6738;DHT22;3406;49.902;8.596;2022-09-25T06:28:27;14.10;94.00
6738;DHT22;3406;49.902;8.596;2022-09-25T06:30:54;14.10;94.00
6738;DHT22;3406;49.902;8.596;2022-09-25T06:33:20;14.10;94.00
6738;DHT22;3406;49.902;8.596;2022-09-25T06:35:47;14.20;94.10
6738;DHT22;3406;49.902;8.596;2022-09-25T06:38:15;14.20;94.10
6738;DHT22;3406;49.902;8.596;2022-09-25T06:40:43;14.20;94.00
6738;DHT22;3406;49.902;8.596;2022-09-25T06:43:11;14.20;94.10
6738;DHT22;3406;49.902;8.596;2022-09-25T06:45:38;14.10;94.00
6738;DHT22;3406;49.902;8.596;2022-09-25T06:48:07;14.10;94.10
6738;DHT22;3406;49.902;8.596;2022-09-25T06:50:39;14.20;94.20
6738;DHT22;3406;49.902;8.596;2022-09-25T06:53:06;14.10;94.10
6738;DHT22;3406;49.902;8.596;2022-09-25T06:55:33;14.10;94.10
6738;DHT22;3406;49.902;8.596;2022-09-25T06:58:01;14.20;94.10
6738;DHT22;3406;49.902;8.596;2022-09-25T07:00:29;14.20;94.20
6738;DHT22;3406;49.902;8.596;2022-09-25T07:02:56;14.20;94.20
6738;DHT22;3406;49.902;8.596;2022-09-25T07:05:52;14.20;94.20
6738;DHT22;3406;49.902;8.596;2022-09-25T07:08:19;14.20;94.20
6738;DHT22;3406;49.902;8.596;2022-09-25T07:10:47;14.20;94.20
6738;DHT22;3406;49.902;8.596;2022-09-25T07:13:16;14.20;94.20
6738;DHT22;3406;49.902;8.596;2022-09-25T07:15:43;14.20;94.30
6738;DHT22;3406;49.902;8.596;2022-09-25T07:18:15;14.20;94.30
6738;DHT22;3406;49.902;8.596;2022-09-25T07:20:42;14.20;94.30
6738;DHT22;3406;49.902;8.596;2022-09-25T07:23:11;14.30;94.40
6738;DHT22;3406;49.902;8.596;2022-09-25T07:25:38;14.30;94.40
6738;DHT22;3406;49.902;8.596;2022-09-25T07:28:05;14.30;94.30
6738;DHT22;3406;49.902;8.596;2022-09-25T07:30:33;14.30;94.30
6738;DHT22;3406;49.902;8.596;2022-09-25T07:33:00;14.30;94.30
6738;DHT22;3406;49.902;8.596;2022-09-25T07:35:27;14.40;94.40
6738;DHT22;3406;49.902;8.596;2022-09-25T07:37:54;14.40;94.40
6738;DHT22;3406;49.902;8.596;2022-09-25T07:40:21;14.50;94.50
6738;DHT22;3406;49.902;8.596;2022-09-25T07:42:48;14.50;94.40
6738;DHT22;3406;49.902;8.596;2022-09-25T07:45:15;14.50;94.40
6738;DHT22;3406;49.902;8.596;2022-09-25T07:47:43;14.50;94.30
6738;DHT22;3406;49.902;8.596;2022-09-25T07:50:09;14.50;94.30
6738;DHT22;3406;49.902;8.596;2022-09-25T07:52:36;14.60;94.40
6738;DHT22;3406;49.902;8.596;2022-09-25T07:55:03;14.60;94.40
6738;DHT22;3406;49.902;8.596;2022-09-25T07:57:30;14.60;94.40
6738;DHT22;3406;49.902;8.596;2022-09-25T07:59:58;14.70;94.40
6738;DHT22;3406;49.902;8.596;2022-09-25T08:02:25;14.70;94.30
6738;DHT22;3406;49.902;8.596;2022-09-25T08:04:52;14.70;94.30
6738;DHT22;3406;49.902;8.596;2022-09-25T08:07:19;14.70;94.30
6738;DHT22;3406;49.902;8.596;2022-09-25T08:09:46;14.60;94.30
6738;DHT22;3406;49.902;8.596;2022-09-25T08:12:12;14.70;94.40
6738;DHT22;3406;49.902;8.596;2022-09-25T08:14:39;14.70;94.40
6738;DHT22;3406;49.902;8.596;2022-09-25T08:17:06;14.80;94.40
6738;DHT22;3406;49.902;8.596;2022-09-25T08:19:33;14.80;94.30
6738;DHT22;3406;49.902;8.596;2022-09-25T08:22:00;14.80;94.30
6738;DHT22;3406;49.902;8.596;2022-09-25T08:24:27;14.80;94.20
6738;DHT22;3406;49.902;8.596;2022-09-25T08:26:54;14.80;94.30
6738;DHT22;3406;49.902;8.596;2022-09-25T08:29:20;14.80;94.30
6738;DHT22;3406;49.902;8.596;2022-09-25T08:31:47;14.80;94.30
6738;DHT22;3406;49.902;8.596;2022-09-25T08:34:14;14.80;94.20
6738;DHT22;3406;49.902;8.596;2022-09-25T08:36:41;14.90;94.20
6738;DHT22;3406;49.902;8.596;2022-09-25T08:39:09;14.90;94.30
6738;DHT22;3406;49.902;8.596;2022-09-25T08:41:42;14.90;94.20
6738;DHT22;3406;49.902;8.596;2022-09-25T08:44:20;14.90;94.20
6738;DHT22;3406;49.902;8.596;2022-09-25T08:46:51;14.90;94.10
6738;DHT22;3406;49.902;8.596;2022-09-25T08:49:40;14.80;94.10
6738;DHT22;3406;49.902;8.596;2022-09-25T08:52:13;14.80;94.10
6738;DHT22;3406;49.902;8.596;2022-09-25T08:54:42;14.80;94.10
6738;DHT22;3406;49.902;8.596;2022-09-25T08:57:16;14.80;94.10
6738;DHT22;3406;49.902;8.596;2022-09-25T08:59:50;14.80;94.20
6738;DHT22;3406;49.902;8.596;2022-09-25T09:02:21;14.90;94.20
6738;DHT22;3406;49.902;8.596;2022-09-25T09:04:51;14.80;94.20
6738;DHT22;3406;49.902;8.596;2022-09-25T09:07:22;14.90;94.20
6738;DHT22;3406;49.902;8.596;2022-09-25T09:09:54;14.90;94.20
6738;DHT22;3406;49.902;8.596;2022-09-25T09:12:27;14.90;94.20
6738;DHT22;3406;49.902;8.596;2022-09-25T09:15:06;14.90;94.20
6738;DHT22;3406;49.902;8.596;2022-09-25T09:17:40;15.00;94.20
6738;DHT22;3406;49.902;8.596;2022-09-25T09:20:14;15.00;94.20
6738;DHT22;3406;49.902;8.596;2022-09-25T09:22:46;15.00;94.20
6738;DHT22;3406;49.902;8.596;2022-09-25T09:25:24;15.10;94.20
6738;DHT22;3406;49.902;8.596;2022-09-25T09:28:11;15.10;94.20
6738;DHT22;3406;49.902;8.596;2022-09-25T09:30:45;15.20;94.30
6738;DHT22;3406;49.902;8.596;2022-09-25T09:33:33;15.30;94.30
6738;DHT22;3406;49.902;8.596;2022-09-25T09:36:12;15.30;94.20
6738;DHT22;3406;49.902;8.596;2022-09-25T09:38:46;15.40;94.20
6738;DHT22;3406;49.902;8.596;2022-09-25T09:41:29;15.50;94.30
6738;DHT22;3406;49.902;8.596;2022-09-25T09:44:08;15.50;94.30
6738;DHT22;3406;49.902;8.596;2022-09-25T09:46:44;15.50;94.10
6738;DHT22;3406;49.902;8.596;2022-09-25T09:49:16;15.50;94.00
6738;DHT22;3406;49.902;8.596;2022-09-25T09:51:49;15.60;94.10
6738;DHT22;3406;49.902;8.596;2022-09-25T09:54:21;15.60;94.00
6738;DHT22;3406;49.902;8.596;2022-09-25T09:56:51;15.70;94.10
6738;DHT22;3406;49.902;8.596;2022-09-25T09:59:20;15.70;93.90
6738;DHT22;3406;49.902;8.596;2022-09-25T10:01:53;15.80;93.90
6738;DHT22;3406;49.902;8.596;2022-09-25T10:04:25;15.80;93.80
6738;DHT22;3406;49.902;8.596;2022-09-25T10:06:57;15.80;93.80
6738;DHT22;3406;49.902;8.596;2022-09-25T10:09:26;15.80;93.80
6738;DHT22;3406;49.902;8.596;2022-09-25T10:11:59;15.90;93.80
6738;DHT22;3406;49.902;8.596;2022-09-25T10:14:31;15.90;93.70
6738;DHT22;3406;49.902;8.596;2022-09-25T10:16:59;15.90;93.40
6738;DHT22;3406;49.902;8.596;2022-09-25T10:19:28;15.80;93.20
6738;DHT22;3406;49.902;8.596;2022-09-25T10:21:59;15.70;93.20
6738;DHT22;3406;49.902;8.596;2022-09-25T10:24:48;15.70;93.20
6738;DHT22;3406;49.902;8.596;2022-09-25T10:27:25;15.60;93.20
6738;DHT22;3406;49.902;8.596;2022-09-25T10:30:15;15.70;93.40
6738;DHT22;3406;49.902;8.596;2022-09-25T10:32:54;15.70;93.40
6738;DHT22;3406;49.902;8.596;2022-09-25T10:35:24;15.70;93.30
6738;DHT22;3406;49.902;8.596;2022-09-25T10:37:52;15.80;93.30
6738;DHT22;3406;49.902;8.596;2022-09-25T10:40:28;15.90;93.30
6738;DHT22;3406;49.902;8.596;2022-09-25T10:43:04;16.00;93.30
6738;DHT22;3406;49.902;8.596;2022-09-25T10:45:33;16.00;93.10
6738;DHT22;3406;49.902;8.596;2022-09-25T10:48:00;16.10;92.90
6738;DHT22;3406;49.902;8.596;2022-09-25T10:50:44;16.10;92.80
6738;DHT22;3406;49.902;8.596;2022-09-25T10:53:30;16.00;92.60
6738;DHT22;3406;49.902;8.596;2022-09-25T10:56:01;16.00;92.60
6738;DHT22;3406;49.902;8.596;2022-09-25T10:58:35;15.90;92.50
6738;DHT22;3406;49.902;8.596;2022-09-25T11:01:04;15.80;92.40
6738;DHT22;3406;49.902;8.596;2022-09-25T11:03:36;15.70;92.40
6738;DHT22;3406;49.902;8.596;2022-09-25T11:06:07;15.60;92.30
6738;DHT22;3406;49.902;8.596;2022-09-25T11:08:37;15.50;92.40
6738;DHT22;3406;49.902;8.596;2022-09-25T11:11:06;15.50;92.50
6738;DHT22;3406;49.902;8.596;2022-09-25T11:13:37;15.40;92.50
6738;DHT22;3406;49.902;8.596;2022-09-25T11:16:07;15.30;92.30
6738;DHT22;3406;49.902;8.596;2022-09-25T11:18:38;15.20;92.40
6738;DHT22;3406;49.902;8.596;2022-09-25T11:21:16;15.20;92.50
6738;DHT22;3406;49.902;8.596;2022-09-25T11:23:56;15.10;92.50
6738;DHT22;3406;49.902;8.596;2022-09-25T11:26:31;15.10;92.50
6738;DHT22;3406;49.902;8.596;2022-09-25T11:29:06;15.00;92.50
6738;DHT22;3406;49.902;8.596;2022-09-25T11:31:39;15.00;92.50
6738;DHT22;3406;49.902;8.596;2022-09-25T11:34:14;15.00;92.60
6738;DHT22;3406;49.902;8.596;2022-09-25T11:36:44;15.00;92.90
6738;DHT22;3406;49.902;8.596;2022-09-25T11:39:15;14.90;92.90
6738;DHT22;3406;49.902;8.596;2022-09-25T11:42:06;14.90;92.60
6738;DHT22;3406;49.902;8.596;2022-09-25T11:44:41;14.90;92.50
6738;DHT22;3406;49.902;8.596;2022-09-25T11:47:14;14.90;92.60
6738;DHT22;3406;49.902;8.596;2022-09-25T11:49:42;15.00;92.70
6738;DHT22;3406;49.902;8.596;2022-09-25T11:52:36;15.00;92.60
6738;DHT22;3406;49.902;8.596;2022-09-25T11:55:29;15.00;92.70
6738;DHT22;3406;49.902;8.596;2022-09-25T11:58:12;15.00;92.70
6738;DHT22;3406;49.902;8.596;2022-09-25T12:00:50;15.00;92.60
6738;DHT22;3406;49.902;8.596;2022-09-25T12:03:28;15.00;92.50
6738;DHT22;3406;49.902;8.596;2022-09-25T12:06:10;15.00;92.40
6738;DHT22;3406;49.902;8.596;2022-09-25T12:08:53;15.00;92.40
6738;DHT22;3406;49.902;8.596;2022-09-25T12:11:27;15.00;92.30
6738;DHT22;3406;49.902;8.596;2022-09-25T12:14:06;14.90;92.20
6738;DHT22;3406;49.902;8.596;2022-09-25T12:16:42;14.80;92.10
6738;DHT22;3406;49.902;8.596;2022-09-25T12:19:20;14.80;92.00
6738;DHT22;3406;49.902;8.596;2022-09-25T12:21:57;14.70;92.00
6738;DHT22;3406;49.902;8.596;2022-09-25T12:24:35;14.60;91.90
6738;DHT22;3406;49.902;8.596;2022-09-25T12:27:10;14.50;91.90
6738;DHT22;3406;49.902;8.596;2022-09-25T12:29:48;14.50;92.00
6738;DHT22;3406;49.902;8.596;2022-09-25T12:32:27;14.50;92.00
6738;DHT22;3406;49.902;8.596;2022-09-25T12:35:09;14.60;92.10
6738;DHT22;3406;49.902;8.596;2022-09-25T12:37:39;14.60;91.90
6738;DHT22;3406;49.902;8.596;2022-09-25T12:40:15;14.50;91.70
6738;DHT22;3406;49.902;8.596;2022-09-25T12:42:49;14.40;91.70
6738;DHT22;3406;49.902;8.596;2022-09-25T12:45:22;14.40;91.70
6738;DHT22;3406;49.902;8.596;2022-09-25T12:48:03;14.40;91.70
6738;DHT22;3406;49.902;8.596;2022-09-25T12:50:35;14.40;91.70
6738;DHT22;3406;49.902;8.596;2022-09-25T12:53:13;14.40;91.70
6738;DHT22;3406;49.902;8.596;2022-09-25T12:55:51;14.40;91.70
6738;DHT22;3406;49.902;8.596;2022-09-25T12:58:23;14.40;91.70
6738;DHT22;3406;49.902;8.596;2022-09-25T13:00:56;14.40;91.60
6738;DHT22;3406;49.902;8.596;2022-09-25T13:03:36;14.40;91.60
6738;DHT22;3406;49.902;8.596;2022-09-25T13:06:09;14.50;91.60
6738;DHT22;3406;49.902;8.596;2022-09-25T13:08:43;14.50;91.50
6738;DHT22;3406;49.902;8.596;2022-09-25T13:11:15;14.50;91.40
6738;DHT22;3406;49.902;8.596;2022-09-25T13:13:47;14.50;91.30
6738;DHT22;3406;49.902;8.596;2022-09-25T13:16:17;14.60;91.20
6738;DHT22;3406;49.902;8.596;2022-09-25T13:18:48;14.60;91.20
6738;DHT22;3406;49.902;8.596;2022-09-25T13:21:23;14.60;91.10
6738;DHT22;3406;49.902;8.596;2022-09-25T13:23:51;14.60;91.00
6738;DHT22;3406;49.902;8.596;2022-09-25T13:26:21;14.60;91.00
6738;DHT22;3406;49.902;8.596;2022-09-25T13:28:52;14.60;91.30
6738;DHT22;3406;49.902;8.596;2022-09-25T13:31:22;14.60;90.80
6738;DHT22;3406;49.902;8.596;2022-09-25T13:33:56;14.60;90.70
6738;DHT22;3406;49.902;8.596;2022-09-25T13:36:37;14.60;90.70
6738;DHT22;3406;49.902;8.596;2022-09-25T13:39:15;14.60;90.60
6738;DHT22;3406;49.902;8.596;2022-09-25T13:42:03;14.60;90.60
6738;DHT22;3406;49.902;8.596;2022-09-25T13:44:50;14.60;90.60
6738;DHT22;3406;49.902;8.596;2022-09-25T13:48:07;14.60;90.60
6738;DHT22;3406;49.902;8.596;2022-09-25T13:50:38;14.60;90.50
6738;DHT22;3406;49.902;8.596;2022-09-25T13:53:19;14.60;90.50
6738;DHT22;3406;49.902;8.596;2022-09-25T13:56:15;14.60;90.40
6738;DHT22;3406;49.902;8.596;2022-09-25T13:59:33;14.50;90.40
6738;DHT22;3406;49.902;8.596;2022-09-25T14:02:37;14.50;90.30
6738;DHT22;3406;49.902;8.596;2022-09-25T14:05:06;14.50;90.10
6738;DHT22;3406;49.902;8.596;2022-09-25T14:07:34;14.60;90.10
6738;DHT22;3406;49.902;8.596;2022-09-25T14:10:03;14.60;90.10
6738;DHT22;3406;49.902;8.596;2022-09-25T14:12:37;14.60;90.00
6738;DHT22;3406;49.902;8.596;2022-09-25T14:15:13;14.70;90.00
6738;DHT22;3406;49.902;8.596;2022-09-25T14:17:43;14.70;89.70
6738;DHT22;3406;49.902;8.596;2022-09-25T14:20:41;14.70;89.50
6738;DHT22;3406;49.902;8.596;2022-09-25T14:23:15;14.70;89.30
6738;DHT22;3406;49.902;8.596;2022-09-25T14:25:42;14.80;89.20
6738;DHT22;3406;49.902;8.596;2022-09-25T14:28:20;14.80;89.10
6738;DHT22;3406;49.902;8.596;2022-09-25T14:30:51;14.80;89.00
6738;DHT22;3406;49.902;8.596;2022-09-25T14:33:30;14.70;88.90
6738;DHT22;3406;49.902;8.596;2022-09-25T14:36:07;14.70;88.80
6738;DHT22;3406;49.902;8.596;2022-09-25T14:39:01;14.80;88.80
6738;DHT22;3406;49.902;8.596;2022-09-25T14:41:46;14.70;88.70
6738;DHT22;3406;49.902;8.596;2022-09-25T14:47:10;14.70;88.30
6738;DHT22;3406;49.902;8.596;2022-09-25T14:49:40;14.60;88.10
6738;DHT22;3406;49.902;8.596;2022-09-25T14:52:12;14.70;88.40
6738;DHT22;3406;49.902;8.596;2022-09-25T14:54:44;14.60;88.10
6738;DHT22;3406;49.902;8.596;2022-09-25T14:57:14;14.60;88.20
6738;DHT22;3406;49.902;8.596;2022-09-25T14:59:44;14.60;88.20
6738;DHT22;3406;49.902;8.596;2022-09-25T15:02:16;14.60;88.40
6738;DHT22;3406;49.902;8.596;2022-09-25T15:04:44;14.70;88.50
6738;DHT22;3406;49.902;8.596;2022-09-25T15:07:14;14.70;88.40
6738;DHT22;3406;49.902;8.596;2022-09-25T15:09:44;14.70;88.30
6738;DHT22;3406;49.902;8.596;2022-09-25T15:12:18;14.90;88.50
6738;DHT22;3406;49.902;8.596;2022-09-25T15:15:04;14.80;87.80
6738;DHT22;3406;49.902;8.596;2022-09-25T15:17:32;14.80;87.40
6738;DHT22;3406;49.902;8.596;2022-09-25T15:20:01;14.80;87.30
6738;DHT22;3406;49.902;8.596;2022-09-25T15:22:31;14.90;87.50
6738;DHT22;3406;49.902;8.596;2022-09-25T15:25:04;14.90;87.30
6738;DHT22;3406;49.902;8.596;2022-09-25T15:27:32;14.90;87.10
6738;DHT22;3406;49.902;8.596;2022-09-25T15:29:59;14.90;87.10
6738;DHT22;3406;49.902;8.596;2022-09-25T15:32:31;15.00;87.20
6738;DHT22;3406;49.902;8.596;2022-09-25T15:35:13;15.10;86.60
6738;DHT22;3406;49.902;8.596;2022-09-25T15:37:42;15.10;86.30
6738;DHT22;3406;49.902;8.596;2022-09-25T15:40:18;15.10;86.10
6738;DHT22;3406;49.902;8.596;2022-09-25T15:42:48;15.10;85.90
6738;DHT22;3406;49.902;8.596;2022-09-25T15:45:35;15.00;85.70
6738;DHT22;3406;49.902;8.596;2022-09-25T15:48:09;15.00;85.60
6738;DHT22;3406;49.902;8.596;2022-09-25T15:50:36;15.00;85.40
6738;DHT22;3406;49.902;8.596;2022-09-25T15:53:24;14.90;85.10
6738;DHT22;3406;49.902;8.596;2022-09-25T15:56:03;14.90;85.10
6738;DHT22;3406;49.902;8.596;2022-09-25T15:58:34;14.90;85.10
6738;DHT22;3406;49.902;8.596;2022-09-25T16:01:02;14.90;85.20
6738;DHT22;3406;49.902;8.596;2022-09-25T16:03:49;14.90;85.20
6738;DHT22;3406;49.902;8.596;2022-09-25T16:06:38;14.90;85.10
6738;DHT22;3406;49.902;8.596;2022-09-25T16:09:16;14.90;85.00
6738;DHT22;3406;49.902;8.596;2022-09-25T16:11:46;14.90;85.00
6738;DHT22;3406;49.902;8.596;2022-09-25T16:14:24;14.90;85.00
6738;DHT22;3406;49.902;8.596;2022-09-25T16:16:54;14.80;85.10
6738;DHT22;3406;49.902;8.596;2022-09-25T16:19:31;14.80;85.10
6738;DHT22;3406;49.902;8.596;2022-09-25T16:21:59;14.80;85.30
6738;DHT22;3406;49.902;8.596;2022-09-25T16:24:38;14.70;85.40
6738;DHT22;3406;49.902;8.596;2022-09-25T16:27:16;14.70;85.60
6738;DHT22;3406;49.902;8.596;2022-09-25T16:29:46;14.60;85.60
6738;DHT22;3406;49.902;8.596;2022-09-25T16:32:15;14.60;85.70
6738;DHT22;3406;49.902;8.596;2022-09-25T16:34:58;14.60;85.80
6738;DHT22;3406;49.902;8.596;2022-09-25T16:37:30;14.60;85.90